ESMS/MMX METAR and TAF weather

Enter ICAO airport designator
Station Type Date Time Source
ESMS METAR 2021/10/24 22:50 UTC NOAA

ESMS 242250Z 17009KT 9999 NSC 06/04 Q1021


Station Type Date Time Source
ESMS Decoded METAR 2021/10/24 22:50 UTC NOAA

Malmo / Sturup, Sweden (ESMS) 55-33N 013-22E
Oct 24, 2021 - 06:50 PM EDT / 2021.10.24 2250 UTC
Wind: from the S (170 degrees) at 10 MPH (9 KT):0
Visibility: greater than 7 mile(s):0
Temperature: 42 F (6 C)
Dew Point: 39 F (4 C)
Relative Humidity: 86%
Pressure (altimeter): 30.15 in. Hg (1021 hPa)
ob: ESMS 242250Z 17009KT 9999 NSC 06/04 Q1021
cycle: 23

Station Type Date Time Source
ESMS TAF 2021/10/24 18:06 UTC NOAA

TAF ESMS 241701Z 2418/2518 18008KT 9999 FEW045

Example: see airport list